Time;durP1;ratioP1;P1;durP2;ratioP2;P2;SDS_P1;SDS_P2;PMS_P1;PMS_P2;Temp;Humidity;BMP_temperature;BMP_pressure;BME280_temperature;BME280_humidity;BME280_pressure;Samples;Min_cycle;Max_cycle;Signal;HPM_P1;HPM_P2
2022/06/24 00:02:13;;;;;;;2.38;0.70;;;15.20;99.90;;;;;;5011459;28;20065;-69
2022/06/24 00:04:40;;;;;;;1.58;0.50;;;15.20;99.90;;;;;;5012584;28;20030;-69
2022/06/24 00:07:15;;;;;;;1.08;0.45;;;15.30;99.90;;;;;;5012931;28;20029;-69
2022/06/24 00:09:44;;;;;;;0.85;0.50;;;15.40;99.90;;;;;;5012756;28;20152;-69
2022/06/24 00:12:17;;;;;;;1.23;0.47;;;15.50;99.90;;;;;;5011345;28;20075;-69
2022/06/24 00:14:56;;;;;;;0.70;0.38;;;15.50;99.90;;;;;;5013088;28;20109;-69
2022/06/24 00:17:32;;;;;;;1.48;0.60;;;15.50;99.90;;;;;;5012735;28;20370;-69
2022/06/24 00:20:03;;;;;;;3.40;0.63;;;15.60;99.90;;;;;;5013126;28;20022;-69
2022/06/24 00:22:32;;;;;;;1.23;0.40;;;15.70;99.90;;;;;;5012732;28;20018;-70
2022/06/24 00:25:17;;;;;;;1.10;0.52;;;15.70;99.90;;;;;;5015046;28;20470;-69
2022/06/24 00:27:58;;;;;;;3.58;0.65;;;15.80;99.90;;;;;;5016557;28;20072;-69
2022/06/24 00:30:25;;;;;;;;;;;15.80;99.90;;;;;;5016921;28;20022;-70
2022/06/24 00:32:52;;;;;;;1.23;0.50;;;16.00;99.90;;;;;;5016348;28;20011;-70
2022/06/24 00:35:20;;;;;;;1.25;0.55;;;16.00;99.90;;;;;;5016523;28;20544;-69
2022/06/24 00:37:47;;;;;;;2.25;0.55;;;16.10;99.90;;;;;;5016383;28;20022;-69
2022/06/24 00:40:16;;;;;;;3.72;0.85;;;16.10;99.90;;;;;;5016389;28;20018;-69
2022/06/24 00:42:48;;;;;;;2.60;0.70;;;16.10;99.90;;;;;;5016628;28;20139;-69
2022/06/24 00:45:43;;;;;;;2.53;0.68;;;16.20;99.90;;;;;;5014973;28;20022;-69
2022/06/24 00:48:16;;;;;;;0.90;0.60;;;16.30;99.90;;;;;;5011308;28;20041;-69
2022/06/24 00:50:47;;;;;;;2.30;0.52;;;16.40;99.90;;;;;;5016690;28;20022;-70
2022/06/24 00:53:15;;;;;;;1.80;0.68;;;16.40;99.90;;;;;;5016030;28;20097;-69
2022/06/24 00:55:45;;;;;;;1.70;0.65;;;16.50;99.90;;;;;;5014743;28;20442;-68
2022/06/24 00:58:17;;;;;;;2.55;0.60;;;16.40;99.90;;;;;;5015919;28;20080;-68
2022/06/24 01:00:47;;;;;;;2.50;0.65;;;16.50;99.90;;;;;;5014680;28;20125;-69
2022/06/24 01:03:15;;;;;;;2.35;0.45;;;16.50;99.90;;;;;;5016519;28;20064;-69
2022/06/24 01:05:43;;;;;;;0.82;0.32;;;16.60;99.90;;;;;;5015575;28;20050;-69
2022/06/24 01:08:13;;;;;;;0.95;0.30;;;16.60;99.90;;;;;;5015863;28;20026;-69
2022/06/24 01:10:42;;;;;;;0.70;0.30;;;16.60;99.90;;;;;;5015823;28;20485;-69
2022/06/24 01:13:10;;;;;;;0.70;0.30;;;16.80;99.90;;;;;;5014261;28;20645;-69
2022/06/24 01:15:38;;;;;;;1.73;0.40;;;16.90;99.90;;;;;;5014483;28;20068;-69
2022/06/24 01:18:07;;;;;;;1.58;0.40;;;16.90;99.90;;;;;;5014195;28;20044;-68
2022/06/24 01:20:34;;;;;;;2.25;0.38;;;16.90;99.90;;;;;;5015620;28;20026;-69
2022/06/24 01:23:02;;;;;;;1.77;0.35;;;16.90;99.90;;;;;;5015452;28;20025;-69
2022/06/24 01:25:32;;;;;;;0.77;0.30;;;16.80;99.90;;;;;;5016125;28;20022;-69
2022/06/24 01:28:00;;;;;;;0.60;0.40;;;16.80;99.90;;;;;;5014333;28;20398;-70
2022/06/24 01:30:28;;;;;;;1.60;0.40;;;16.90;99.90;;;;;;5015390;28;20038;-70
2022/06/24 01:32:56;;;;;;;2.45;0.70;;;16.90;99.90;;;;;;5014023;28;20095;-70
2022/06/24 01:35:23;;;;;;;1.65;0.40;;;16.80;99.90;;;;;;5014840;28;20026;-70
2022/06/24 01:37:50;;;;;;;2.53;0.60;;;16.80;99.90;;;;;;5015072;28;20363;-70
2022/06/24 01:40:18;;;;;;;0.73;0.30;;;17.00;99.90;;;;;;5015132;28;20028;-69
2022/06/24 01:42:45;;;;;;;0.80;0.30;;;17.00;99.90;;;;;;5015096;28;20025;-70
2022/06/24 01:45:12;;;;;;;1.85;0.50;;;17.00;99.90;;;;;;5015136;28;20046;-70
2022/06/24 01:47:40;;;;;;;1.35;0.30;;;17.00;99.90;;;;;;5014946;28;20025;-69
2022/06/24 01:50:08;;;;;;;1.17;0.60;;;17.00;99.90;;;;;;5015107;28;20018;-69
2022/06/24 01:52:35;;;;;;;0.43;0.30;;;17.10;99.90;;;;;;5015308;28;20018;-71
2022/06/24 01:55:04;;;;;;;1.23;0.50;;;17.00;99.90;;;;;;5015040;28;20021;-69
2022/06/24 01:57:31;;;;;;;0.60;0.45;;;17.10;99.90;;;;;;5013618;28;20026;-70
2022/06/24 02:00:00;;;;;;;1.23;0.50;;;17.20;99.90;;;;;;5013514;28;20045;-70
2022/06/24 02:02:27;;;;;;;1.05;0.55;;;17.20;99.90;;;;;;5014859;28;20029;-70
2022/06/24 02:04:54;;;;;;;1.45;0.40;;;17.30;99.90;;;;;;5014487;28;20160;-69
2022/06/24 02:07:22;;;;;;;2.15;0.40;;;17.30;99.90;;;;;;5014769;28;20026;-69
2022/06/24 02:15:20;;;;;;;1.80;0.52;;;17.40;99.90;;;;;;5014779;28;20076;-70
2022/06/24 02:17:47;;;;;;;1.70;0.50;;;17.30;99.90;;;;;;5014634;28;20049;-70
2022/06/24 02:20:15;;;;;;;1.98;0.40;;;17.50;99.90;;;;;;5014560;28;20476;-70
2022/06/24 02:22:42;;;;;;;1.17;0.52;;;17.70;99.90;;;;;;5013133;28;20022;-70
2022/06/24 02:25:10;;;;;;;2.10;0.47;;;17.80;99.90;;;;;;5014627;28;20022;-70
2022/06/24 02:27:37;;;;;;;1.42;0.80;;;17.90;99.90;;;;;;5014898;28;20494;-70
2022/06/24 02:30:05;;;;;;;0.75;0.45;;;18.00;99.90;;;;;;5014354;28;20026;-70
2022/06/24 02:32:32;;;;;;;1.23;0.40;;;18.10;99.90;;;;;;5014306;28;20022;-70
2022/06/24 02:35:00;;;;;;;1.05;0.47;;;17.90;99.90;;;;;;5014546;28;20100;-70
2022/06/24 02:37:27;;;;;;;1.58;0.60;;;18.00;99.90;;;;;;5014250;28;20030;-71
2022/06/24 02:39:54;;;;;;;1.98;0.80;;;18.00;99.90;;;;;;5014214;28;20033;-71
2022/06/24 02:42:21;;;;;;;1.20;0.40;;;18.00;99.90;;;;;;5014103;28;20530;-71
2022/06/24 02:44:49;;;;;;;1.63;0.50;;;18.00;99.90;;;;;;5012683;28;20026;-71
2022/06/24 02:47:16;;;;;;;1.98;0.50;;;18.20;99.90;;;;;;5012115;28;20022;-71
2022/06/24 02:49:43;;;;;;;4.95;0.70;;;18.10;99.90;;;;;;5013653;28;20024;-71
2022/06/24 02:52:11;;;;;;;3.80;0.77;;;18.10;99.90;;;;;;5013994;28;20076;-71
2022/06/24 02:54:38;;;;;;;1.50;0.50;;;18.40;99.90;;;;;;5013884;28;20018;-71
2022/06/24 02:57:05;;;;;;;0.70;0.50;;;18.50;99.90;;;;;;5013783;28;20019;-72
2022/06/24 02:59:33;;;;;;;1.48;0.50;;;18.70;99.90;;;;;;5013957;28;20022;-71
2022/06/24 03:02:00;;;;;;;2.08;0.70;;;18.70;99.90;;;;;;5013699;28;20097;-70
2022/06/24 03:04:27;;;;;;;1.65;0.52;;;18.50;99.90;;;;;;5012279;28;20022;-71
2022/06/24 03:06:55;;;;;;;2.15;0.55;;;18.40;99.90;;;;;;5013540;28;20516;-71
2022/06/24 03:09:22;;;;;;;1.38;0.60;;;18.30;99.90;;;;;;5013624;28;20022;-70
2022/06/24 03:11:49;;;;;;;1.15;0.70;;;18.40;99.90;;;;;;5013606;28;20018;-71
2022/06/24 03:14:17;;;;;;;2.63;0.60;;;18.30;99.90;;;;;;5013696;28;20053;-71
2022/06/24 03:16:44;;;;;;;1.10;0.40;;;18.30;99.90;;;;;;5012282;28;20026;-71
2022/06/24 03:19:12;;;;;;;1.90;0.35;;;18.40;99.90;;;;;;5013610;28;20050;-71
2022/06/24 03:21:39;;;;;;;0.75;0.40;;;18.60;99.90;;;;;;5013486;28;20367;-71
2022/06/24 03:24:07;;;;;;;1.20;0.47;;;18.70;99.90;;;;;;5012993;28;20026;-71
2022/06/24 03:26:34;;;;;;;2.03;0.50;;;18.80;99.90;;;;;;5012043;28;20112;-71
2022/06/24 03:29:01;;;;;;;4.07;0.88;;;18.70;99.90;;;;;;5012077;28;20026;-71
2022/06/24 03:31:29;;;;;;;3.63;1.20;;;18.70;99.90;;;;;;5011995;28;20026;-71
2022/06/24 03:33:57;;;;;;;1.20;0.80;;;18.70;99.90;;;;;;5013245;28;20022;-71
2022/06/24 03:36:28;;;;;;;3.80;0.63;;;18.60;99.90;;;;;;5013500;28;20037;-70
2022/06/24 03:38:55;;;;;;;2.83;0.47;;;18.50;99.90;;;;;;5013360;28;20045;-71
2022/06/24 03:41:22;;;;;;;2.60;0.80;;;18.50;99.90;;;;;;5013215;28;20105;-70
2022/06/24 03:43:50;;;;;;;1.48;0.55;;;18.50;99.90;;;;;;5013226;28;20053;-71
2022/06/24 03:46:17;;;;;;;2.85;0.70;;;18.40;99.90;;;;;;5013195;28;20064;-71
2022/06/24 03:48:44;;;;;;;1.77;0.60;;;18.50;99.90;;;;;;5013177;28;20049;-71
2022/06/24 03:51:12;;;;;;;1.92;0.57;;;18.60;99.90;;;;;;5013145;28;20018;-71
2022/06/24 03:53:39;;;;;;;1.48;0.32;;;18.70;99.90;;;;;;5013205;28;20018;-70
2022/06/24 03:56:09;;;;;;;0.93;0.50;;;18.60;99.90;;;;;;5013396;28;20026;-71
2022/06/24 03:58:36;;;;;;;1.00;0.40;;;18.60;99.90;;;;;;5013262;28;20026;-71
2022/06/24 04:01:04;;;;;;;2.15;0.60;;;18.50;99.90;;;;;;5017140;28;20064;-71
2022/06/24 04:03:32;;;;;;;1.70;0.60;;;18.40;99.90;;;;;;5017104;28;20022;-70
2022/06/24 04:05:59;;;;;;;1.65;0.57;;;18.50;99.90;;;;;;5015432;28;20060;-71
2022/06/24 04:08:26;;;;;;;1.83;0.50;;;18.60;99.90;;;;;;5016942;28;20068;-69
2022/06/24 04:10:54;;;;;;;2.08;0.50;;;18.60;99.90;;;;;;5016967;28;20032;-70
2022/06/24 04:13:21;;;;;;;1.45;0.43;;;18.60;99.90;;;;;;5016863;28;20075;-71
2022/06/24 04:15:52;;;;;;;2.95;0.95;;;18.30;99.90;;;;;;5016825;28;20030;-70
2022/06/24 04:18:18;;;;;;;;;;;18.20;99.90;;;;;;5017286;28;20028;-69
2022/06/24 04:20:46;;;;;;;1.70;0.65;;;18.10;99.90;;;;;;5016924;28;20421;-70
2022/06/24 04:23:13;;;;;;;1.10;0.60;;;18.10;99.90;;;;;;5016625;28;20022;-70
2022/06/24 04:25:40;;;;;;;1.70;0.57;;;18.00;99.90;;;;;;5016700;28;20053;-70
2022/06/24 04:28:08;;;;;;;2.15;0.40;;;18.00;99.90;;;;;;5016525;28;20026;-70
2022/06/24 04:30:36;;;;;;;1.73;0.55;;;18.00;99.90;;;;;;5015232;28;20501;-70
2022/06/24 04:33:03;;;;;;;1.02;0.60;;;17.90;99.90;;;;;;5016320;28;20057;-70
2022/06/24 04:35:30;;;;;;;2.25;0.60;;;17.90;99.90;;;;;;5016464;28;20045;-70
2022/06/24 04:37:58;;;;;;;2.47;0.60;;;18.00;99.90;;;;;;5016378;28;20033;-70
2022/06/24 04:40:25;;;;;;;1.15;0.55;;;17.90;99.90;;;;;;5016317;28;20021;-69
2022/06/24 04:42:53;;;;;;;1.80;0.60;;;17.90;99.90;;;;;;5016226;28;20057;-70
2022/06/24 04:45:20;;;;;;;1.40;0.50;;;17.80;99.90;;;;;;5016263;28;20525;-70
2022/06/24 04:47:47;;;;;;;1.45;0.60;;;17.70;99.90;;;;;;5014562;28;20114;-69
2022/06/24 04:50:15;;;;;;;1.65;0.82;;;17.70;99.90;;;;;;5016221;28;20032;-69
2022/06/24 04:52:42;;;;;;;2.40;0.77;;;17.60;99.90;;;;;;5015983;28;20483;-69
2022/06/24 04:55:10;;;;;;;6.15;1.38;;;17.60;99.90;;;;;;5016176;28;20044;-69
2022/06/24 04:57:38;;;;;;;3.17;0.95;;;17.50;99.90;;;;;;5015971;28;20017;-69
2022/06/24 05:00:09;;;;;;;1.55;0.85;;;17.50;99.90;;;;;;5014639;28;20486;-69
2022/06/24 05:02:36;;;;;;;3.50;0.90;;;17.50;99.90;;;;;;5015963;28;20061;-70
2022/06/24 05:05:05;;;;;;;2.20;0.80;;;17.40;99.90;;;;;;5015504;28;20072;-69
2022/06/24 05:07:36;;;;;;;2.72;0.80;;;17.30;99.90;;;;;;5015643;28;20034;-69
2022/06/24 05:10:04;;;;;;;4.10;0.80;;;17.30;99.90;;;;;;5015563;28;20025;-69
2022/06/24 05:12:32;;;;;;;1.20;0.50;;;17.20;99.90;;;;;;5015082;28;20041;-70
2022/06/24 05:14:59;;;;;;;1.50;0.73;;;17.20;99.90;;;;;;5015623;28;20093;-69
2022/06/24 05:17:27;;;;;;;1.83;0.68;;;17.10;99.90;;;;;;5015679;28;20091;-69
2022/06/24 05:19:54;;;;;;;1.55;0.68;;;17.10;99.90;;;;;;5015562;28;20076;-69
2022/06/24 05:22:22;;;;;;;1.75;0.98;;;17.10;99.90;;;;;;5015605;28;20053;-69
2022/06/24 05:24:49;;;;;;;2.05;0.55;;;17.10;99.90;;;;;;5015512;28;20026;-69
2022/06/24 05:27:16;;;;;;;0.90;0.50;;;17.10;99.90;;;;;;5015682;28;20026;-69
2022/06/24 05:29:44;;;;;;;2.92;0.73;;;17.00;99.90;;;;;;5015256;28;20033;-70
2022/06/24 05:32:11;;;;;;;2.88;0.75;;;16.90;99.90;;;;;;5015424;28;20018;-69
2022/06/24 05:34:38;;;;;;;1.17;0.68;;;16.90;99.90;;;;;;5015298;28;20068;-69
2022/06/24 05:37:06;;;;;;;1.58;0.68;;;16.90;99.90;;;;;;5014022;28;20025;-69
2022/06/24 05:39:33;;;;;;;2.40;0.93;;;16.90;99.90;;;;;;5015261;28;20030;-69
2022/06/24 05:42:00;;;;;;;2.22;0.70;;;16.80;99.90;;;;;;5013924;28;20061;-69
2022/06/24 05:44:28;;;;;;;1.95;0.90;;;16.80;99.90;;;;;;5015413;28;20030;-72
2022/06/24 05:46:55;;;;;;;3.58;1.02;;;16.80;99.90;;;;;;5015122;28;20026;-72
2022/06/24 05:49:22;;;;;;;2.13;1.20;;;16.60;99.90;;;;;;5013663;28;20026;-71
2022/06/24 05:51:50;;;;;;;2.42;1.40;;;16.60;99.90;;;;;;5015022;28;20026;-71
2022/06/24 05:57:03;;;;;;;3.85;2.00;;;16.30;99.90;;;;;;5014945;28;20065;-71
2022/06/24 05:59:31;;;;;;;3.35;1.88;;;16.20;99.90;;;;;;5014823;28;20049;-72
2022/06/24 06:01:58;;;;;;;4.00;1.92;;;16.00;99.90;;;;;;5014787;28;20026;-73
2022/06/24 06:04:26;;;;;;;2.72;1.90;;;16.00;99.90;;;;;;5014898;28;20474;-74
2022/06/24 06:06:53;;;;;;;7.38;2.28;;;15.90;99.90;;;;;;5014540;28;20119;-72
2022/06/24 06:09:20;;;;;;;6.32;2.88;;;15.90;99.90;;;;;;5014789;28;20044;-73
2022/06/24 06:11:48;;;;;;;6.22;2.65;;;15.90;99.90;;;;;;5014790;28;20029;-73
2022/06/24 06:14:15;;;;;;;11.10;7.40;;;15.70;99.90;;;;;;5014886;28;20022;-73
2022/06/24 06:16:42;;;;;;;6.85;4.05;;;15.60;99.90;;;;;;5013077;28;20064;-74
2022/06/24 06:19:10;;;;;;;5.35;3.30;;;15.50;99.90;;;;;;5014604;28;20025;-74
2022/06/24 06:21:37;;;;;;;4.30;3.10;;;15.50;99.90;;;;;;5014454;28;20089;-74
2022/06/24 06:24:05;;;;;;;10.85;5.28;;;15.40;99.90;;;;;;5014504;28;20026;-74
2022/06/24 06:26:33;;;;;;;6.05;5.40;;;15.30;99.90;;;;;;5014266;28;20033;-73
2022/06/24 06:29:01;;;;;;;7.28;4.07;;;15.30;99.90;;;;;;5012960;28;20026;-74
2022/06/24 06:31:29;;;;;;;3.10;2.10;;;15.20;99.90;;;;;;5014145;28;20030;-74
2022/06/24 06:33:56;;;;;;;3.22;1.60;;;15.20;99.90;;;;;;5014282;28;20014;-74
2022/06/24 06:36:23;;;;;;;5.10;3.75;;;15.20;99.90;;;;;;5014413;28;20112;-73
2022/06/24 06:38:51;;;;;;;6.40;4.18;;;15.10;99.90;;;;;;5014236;28;20485;-73
2022/06/24 06:41:18;;;;;;;3.50;2.30;;;15.00;99.90;;;;;;5013935;28;20066;-73
2022/06/24 06:43:45;;;;;;;3.45;2.30;;;15.00;99.90;;;;;;5014214;28;20030;-74
2022/06/24 06:46:13;;;;;;;2.85;1.33;;;14.90;99.90;;;;;;5014036;28;20076;-74
2022/06/24 06:48:41;;;;;;;2.65;1.13;;;14.90;99.90;;;;;;5013941;28;20026;-74
2022/06/24 06:51:09;;;;;;;3.55;1.70;;;14.90;99.90;;;;;;5013870;28;20390;-73
2022/06/24 06:53:36;;;;;;;4.75;1.70;;;14.80;99.90;;;;;;5012674;28;20113;-72
2022/06/24 06:56:04;;;;;;;3.17;1.70;;;14.70;99.90;;;;;;5012545;28;20061;-73
2022/06/24 06:58:31;;;;;;;3.47;1.90;;;14.70;99.90;;;;;;5013794;28;20437;-72
2022/06/24 07:00:59;;;;;;;2.35;1.75;;;14.60;99.90;;;;;;5013749;28;20394;-72
2022/06/24 07:03:26;;;;;;;2.25;1.60;;;14.50;99.90;;;;;;5012435;28;20030;-72
2022/06/24 07:05:54;;;;;;;3.53;1.50;;;14.50;99.90;;;;;;5013436;28;20129;-72
2022/06/24 07:08:23;;;;;;;3.45;1.00;;;14.30;99.90;;;;;;5013558;28;20030;-73
2022/06/24 07:10:50;;;;;;;3.17;1.42;;;14.30;99.90;;;;;;5013486;28;20054;-73
2022/06/24 07:13:19;;;;;;;2.88;1.02;;;14.30;99.90;;;;;;5012204;28;20029;-74
2022/06/24 07:15:46;;;;;;;3.13;1.02;;;14.20;99.90;;;;;;5013553;28;20540;-74
2022/06/24 07:18:14;;;;;;;3.78;1.15;;;14.20;99.90;;;;;;5013426;28;20500;-73
2022/06/24 07:20:44;;;;;;;3.47;0.88;;;14.20;99.90;;;;;;5013459;28;20076;-74
2022/06/24 07:23:11;;;;;;;2.20;0.90;;;14.40;99.90;;;;;;5012089;28;20080;-72
2022/06/24 07:25:39;;;;;;;2.05;0.80;;;14.80;99.90;;;;;;5011783;28;20029;-73
2022/06/24 07:28:07;;;;;;;3.55;0.95;;;15.20;99.90;;;;;;5011912;28;20022;-74
2022/06/24 07:30:34;;;;;;;1.77;0.70;;;15.30;99.90;;;;;;5012086;28;20033;-74
2022/06/24 07:33:02;;;;;;;3.47;0.70;;;15.50;99.90;;;;;;5013260;28;20096;-75
2022/06/24 07:35:29;;;;;;;1.38;0.70;;;15.50;99.90;;;;;;5012861;28;20095;-74
2022/06/24 07:37:56;;;;;;;4.80;1.02;;;15.50;99.90;;;;;;5013356;28;20470;-72
2022/06/24 07:40:25;;;;;;;2.83;1.17;;;15.60;99.90;;;;;;5013444;28;20022;-74
2022/06/24 07:42:52;;;;;;;11.88;9.32;;;15.50;99.90;;;;;;5013173;28;20018;-74
2022/06/24 07:45:19;;;;;;;2.15;1.20;;;15.50;99.90;;;;;;5013212;28;20053;-74
2022/06/24 07:47:47;;;;;;;2.15;0.90;;;15.40;99.90;;;;;;5013172;28;20018;-74
2022/06/24 07:50:14;;;;;;;3.15;1.00;;;15.40;99.90;;;;;;5013154;28;20026;-72
2022/06/24 07:52:41;;;;;;;2.75;1.13;;;15.30;99.90;;;;;;5013072;28;20028;-72
2022/06/24 07:57:54;;;;;;;4.50;1.20;;;15.00;99.90;;;;;;5013425;28;20555;-73
2022/06/24 08:00:22;;;;;;;3.15;1.27;;;14.90;99.90;;;;;;5013141;28;20028;-73
2022/06/24 08:02:49;;;;;;;1.73;1.27;;;14.90;99.90;;;;;;5013269;28;20022;-71
2022/06/24 08:05:17;;;;;;;4.60;1.55;;;14.90;99.90;;;;;;5012783;28;20574;-72
2022/06/24 08:07:44;;;;;;;3.28;1.23;;;14.80;99.90;;;;;;5013051;28;20026;-74
2022/06/24 08:10:12;;;;;;;4.00;1.17;;;14.80;99.90;;;;;;5011569;28;20022;-72
2022/06/24 08:12:40;;;;;;;2.78;1.50;;;14.70;99.90;;;;;;5013014;28;20096;-71
2022/06/24 08:15:07;;;;;;;2.60;1.38;;;14.70;99.90;;;;;;5012929;28;20022;-74
2022/06/24 08:17:35;;;;;;;2.08;1.35;;;14.70;99.90;;;;;;5011664;28;20018;-74
2022/06/24 08:20:03;;;;;;;2.38;1.65;;;14.70;99.90;;;;;;5012837;28;20030;-72
2022/06/24 08:22:30;;;;;;;1.92;1.30;;;14.70;99.90;;;;;;5011559;28;20121;-72
2022/06/24 08:24:57;;;;;;;2.67;1.33;;;14.60;99.90;;;;;;5012877;28;20030;-73
2022/06/24 08:27:25;;;;;;;3.67;1.63;;;14.50;99.90;;;;;;5013103;28;20429;-73
2022/06/24 08:29:52;;;;;;;3.63;1.70;;;14.60;99.90;;;;;;5011398;28;20022;-73
2022/06/24 08:32:20;;;;;;;5.45;1.80;;;14.60;99.90;;;;;;5012802;28;20022;-72
2022/06/24 08:34:47;;;;;;;2.40;1.20;;;14.50;99.90;;;;;;5012611;28;20101;-72
2022/06/24 08:37:14;;;;;;;2.80;1.25;;;14.40;99.90;;;;;;5011318;28;20371;-73
2022/06/24 08:39:42;;;;;;;3.20;1.50;;;14.30;99.90;;;;;;5012768;28;20125;-74
2022/06/24 08:42:13;;;;;;;1.92;1.20;;;14.30;99.90;;;;;;5011303;28;20113;-75
2022/06/24 08:44:41;;;;;;;2.63;1.40;;;14.30;99.90;;;;;;5012710;28;20022;-74
2022/06/24 08:47:14;;;;;;;3.60;1.77;;;14.30;99.90;;;;;;5015101;28;20039;-74
2022/06/24 08:49:42;;;;;;;7.10;1.65;;;14.30;99.90;;;;;;5016298;28;20474;-76
2022/06/24 08:52:11;;;;;;;2.80;1.40;;;14.30;99.90;;;;;;5014902;28;20489;-73
2022/06/24 08:54:43;;;;;;;2.42;1.27;;;14.30;99.90;;;;;;5016174;28;20497;-73
2022/06/24 08:57:12;;;;;;;2.72;1.20;;;14.20;99.90;;;;;;5016198;28;20042;-73
2022/06/24 08:59:42;;;;;;;2.28;1.30;;;14.30;99.90;;;;;;5016030;28;20022;-73
2022/06/24 09:02:14;;;;;;;4.07;1.93;;;14.30;99.90;;;;;;5014820;28;20026;-73
2022/06/24 09:04:45;;;;;;;2.47;1.20;;;14.30;99.90;;;;;;5015767;28;20022;-73
2022/06/24 09:07:25;;;;;;;3.58;1.50;;;14.40;99.90;;;;;;5016238;28;20080;-73
2022/06/24 09:10:01;;;;;;;5.45;1.70;;;14.40;99.90;;;;;;5015803;28;20022;-72
2022/06/24 09:12:38;;;;;;;2.60;1.88;;;14.40;99.90;;;;;;5015961;28;20030;-73
2022/06/24 09:15:07;;;;;;;3.03;1.85;;;14.30;99.90;;;;;;5015462;28;20467;-73
2022/06/24 09:17:35;;;;;;;3.47;1.75;;;14.20;99.90;;;;;;5015660;28;20497;-73
2022/06/24 09:20:15;;;;;;;2.97;1.67;;;14.00;99.90;;;;;;5014391;28;20029;-73
2022/06/24 09:22:42;;;;;;;4.00;1.95;;;14.00;99.90;;;;;;5015703;28;20018;-73
2022/06/24 09:25:10;;;;;;;5.45;2.60;;;13.90;99.90;;;;;;5015789;28;20109;-72
2022/06/24 09:27:46;;;;;;;3.65;2.20;;;13.90;99.90;;;;;;5014326;28;20025;-72
2022/06/24 09:30:16;;;;;;;2.65;1.45;;;13.70;99.90;;;;;;5015941;28;20022;-72
2022/06/24 09:32:53;;;;;;;2.22;1.80;;;13.70;99.90;;;;;;5015334;28;20025;-72
2022/06/24 09:35:22;;;;;;;2.33;1.50;;;13.60;99.90;;;;;;5015537;28;20018;-72
2022/06/24 09:37:52;;;;;;;3.20;1.70;;;13.60;99.90;;;;;;5015279;28;20617;-72
2022/06/24 09:40:21;;;;;;;3.60;1.65;;;13.70;99.90;;;;;;4997853;28;20033;-73
2022/06/24 09:43:09;;;;;;;3.50;2.05;;;13.80;99.90;;;;;;5014013;28;20022;-73
2022/06/24 09:45:48;;;;;;;3.70;1.58;;;13.80;99.90;;;;;;5015302;28;20052;-73
2022/06/24 09:48:33;;;;;;;2.63;1.80;;;13.80;99.90;;;;;;5015155;28;20068;-72
2022/06/24 09:51:08;;;;;;;2.63;1.60;;;13.90;99.90;;;;;;5015651;28;20014;-73
2022/06/24 09:53:40;;;;;;;2.58;2.00;;;13.80;99.90;;;;;;5015202;28;20026;-75
2022/06/24 09:56:09;;;;;;;3.00;2.10;;;13.70;99.90;;;;;;5015088;28;20022;-73
2022/06/24 10:00:40;;;;;;;3.20;2.08;;;13.70;99.90;;;;;;5013251;28;20065;-74
2022/06/24 10:01:32;;;;;;;2.38;2.00;;;13.70;99.90;;;;;;5014828;28;20106;-74
2022/06/24 10:04:01;;;;;;;3.63;2.33;;;13.70;99.90;;;;;;5013685;28;20041;-75
2022/06/24 10:06:29;;;;;;;4.68;2.20;;;13.70;99.90;;;;;;5014668;28;20160;-74
2022/06/24 10:08:59;;;;;;;2.63;2.08;;;13.80;99.90;;;;;;5013529;28;20022;-74
2022/06/24 10:11:27;;;;;;;3.25;2.00;;;13.60;99.90;;;;;;5014810;28;20025;-74
2022/06/24 10:13:56;;;;;;;3.72;2.20;;;13.70;99.90;;;;;;5014735;28;20045;-75
2022/06/24 10:16:24;;;;;;;3.05;1.73;;;13.50;99.90;;;;;;5014762;28;20485;-74
2022/06/24 10:18:52;;;;;;;1.85;1.63;;;13.60;99.90;;;;;;5014712;28;20022;-74
2022/06/24 10:21:20;;;;;;;2.42;1.92;;;13.50;99.90;;;;;;5014672;28;20041;-74
2022/06/24 10:23:48;;;;;;;2.58;1.73;;;13.50;99.90;;;;;;5014631;28;20026;-74
2022/06/24 10:26:22;;;;;;;2.83;1.52;;;13.60;99.90;;;;;;5013205;28;20033;-74
2022/06/24 10:29:04;;;;;;;2.13;1.60;;;13.60;99.90;;;;;;5013155;28;20034;-73
2022/06/24 10:31:52;;;;;;;2.05;1.40;;;13.60;99.90;;;;;;5013155;28;20061;-73
2022/06/24 10:34:32;;;;;;;1.67;1.20;;;13.60;99.90;;;;;;5014765;28;20029;-73
2022/06/24 10:37:12;;;;;;;2.08;1.48;;;13.60;99.90;;;;;;5013118;28;20405;-72
2022/06/24 10:40:09;;;;;;;1.75;1.20;;;13.60;99.90;;;;;;5013066;28;20085;-73
2022/06/24 10:42:36;;;;;;;1.95;1.00;;;13.50;99.90;;;;;;5013270;28;20065;-74
2022/06/24 10:45:07;;;;;;;2.53;1.20;;;13.50;99.90;;;;;;5014293;28;20022;-73
2022/06/24 10:47:43;;;;;;;2.83;1.20;;;13.50;99.90;;;;;;5014191;28;20486;-73
2022/06/24 10:50:13;;;;;;;2.45;1.30;;;13.50;99.90;;;;;;5014285;28;20026;-73
2022/06/24 10:52:48;;;;;;;1.80;1.17;;;13.50;99.90;;;;;;5014133;28;20014;-72
2022/06/24 10:55:20;;;;;;;1.60;1.00;;;13.50;99.90;;;;;;5012768;28;20544;-73
2022/06/24 10:57:54;;;;;;;2.95;0.90;;;13.50;99.90;;;;;;5014194;28;20022;-74
2022/06/24 11:00:23;;;;;;;2.13;1.17;;;13.50;99.90;;;;;;5014036;28;20022;-73
2022/06/24 11:03:16;;;;;;;3.22;0.98;;;13.60;99.90;;;;;;5012512;28;20022;-72
2022/06/24 11:05:45;;;;;;;1.92;1.05;;;13.70;99.90;;;;;;5013589;28;20525;-72
2022/06/24 11:08:25;;;;;;;0.90;0.70;;;13.70;99.90;;;;;;5013273;28;20018;-73
2022/06/24 11:10:53;;;;;;;1.67;0.88;;;13.90;99.90;;;;;;5013658;28;20033;-73
2022/06/24 11:13:23;;;;;;;1.80;1.02;;;13.90;99.90;;;;;;5012334;28;20372;-73
2022/06/24 11:15:54;;;;;;;1.33;0.80;;;13.90;99.90;;;;;;5013853;28;20029;-72
2022/06/24 11:18:28;;;;;;;1.90;0.90;;;13.90;99.90;;;;;;5012210;28;20030;-73
2022/06/24 11:21:01;;;;;;;3.05;0.90;;;13.90;99.90;;;;;;5012247;28;20026;-72
2022/06/24 11:23:33;;;;;;;2.03;0.80;;;13.90;99.90;;;;;;5013771;28;20390;-73
2022/06/24 11:26:03;;;;;;;2.13;0.90;;;13.80;99.90;;;;;;5012107;28;20072;-73
2022/06/24 11:28:39;;;;;;;1.58;1.05;;;13.80;99.90;;;;;;5011916;28;20025;-73
2022/06/24 11:31:33;;;;;;;1.48;0.77;;;13.80;99.90;;;;;;5013645;28;20037;-73
2022/06/24 11:34:03;;;;;;;2.70;1.08;;;13.70;99.90;;;;;;5013320;28;20025;-73
2022/06/24 11:36:35;;;;;;;1.30;0.90;;;13.70;99.90;;;;;;5011954;28;20025;-73
2022/06/24 11:39:09;;;;;;;2.05;0.90;;;13.70;99.90;;;;;;5013515;28;20033;-73
2022/06/24 11:41:38;;;;;;;1.67;0.90;;;13.70;99.90;;;;;;5013247;28;20026;-73
2022/06/24 11:44:07;;;;;;;2.78;1.08;;;13.70;99.90;;;;;;5011814;28;20026;-73
2022/06/24 11:46:34;;;;;;;2.65;1.25;;;13.70;99.90;;;;;;5011603;28;20038;-73
2022/06/24 11:49:12;;;;;;;2.00;0.88;;;13.60;99.90;;;;;;5013058;28;20033;-73
2022/06/24 11:51:42;;;;;;;1.42;0.70;;;13.60;99.90;;;;;;5013149;28;20049;-72
2022/06/24 11:54:11;;;;;;;1.13;0.65;;;13.70;99.90;;;;;;5013202;28;20359;-72
2022/06/24 11:56:43;;;;;;;2.30;0.90;;;13.70;99.90;;;;;;5011700;28;20026;-72
2022/06/24 11:59:14;;;;;;;1.75;0.63;;;13.70;99.90;;;;;;5013096;28;20129;-72
2022/06/24 12:01:42;;;;;;;2.63;0.80;;;13.50;99.90;;;;;;5013326;28;20029;-72
2022/06/24 12:04:12;;;;;;;1.05;0.65;;;13.50;99.90;;;;;;5013057;28;20026;-73
2022/06/24 12:06:41;;;;;;;1.50;0.70;;;13.50;99.90;;;;;;5012826;28;20050;-72
2022/06/24 12:09:10;;;;;;;1.27;0.77;;;13.40;99.90;;;;;;5011581;28;20034;-72
2022/06/24 12:11:44;;;;;;;1.10;0.70;;;13.40;99.90;;;;;;5013032;28;20022;-73
2022/06/24 12:14:18;;;;;;;2.25;1.17;;;13.30;99.90;;;;;;5011578;28;20109;-73
2022/06/24 12:17:17;;;;;;;2.33;0.90;;;13.40;99.90;;;;;;5013102;28;20504;-73
2022/06/24 12:20:01;;;;;;;1.45;0.90;;;13.30;99.90;;;;;;4980256;28;20136;-73
2022/06/24 12:22:29;;;;;;;2.25;1.00;;;13.30;99.90;;;;;;5017139;28;20038;-73
2022/06/24 12:25:11;;;;;;;1.90;0.80;;;13.20;99.90;;;;;;5016863;28;20362;-73
2022/06/24 12:27:40;;;;;;;1.27;0.90;;;13.10;99.90;;;;;;5016691;28;20030;-72
2022/06/24 12:30:21;;;;;;;1.88;0.88;;;13.00;99.90;;;;;;5016608;28;20030;-73
2022/06/24 12:32:55;;;;;;;2.45;1.08;;;13.00;99.90;;;;;;5016897;28;20045;-75
2022/06/24 12:35:38;;;;;;;1.77;0.93;;;13.00;99.90;;;;;;5016617;28;20037;-73
2022/06/24 12:38:11;;;;;;;1.50;0.90;;;13.00;99.90;;;;;;5015261;28;20022;-71
2022/06/24 12:40:39;;;;;;;1.95;0.70;;;13.10;99.90;;;;;;5016532;28;20030;-71
2022/06/24 12:43:13;;;;;;;1.15;0.57;;;13.10;99.90;;;;;;5016422;28;20026;-70
2022/06/24 12:45:43;;;;;;;1.15;0.70;;;13.20;99.90;;;;;;5015168;28;20482;-70
2022/06/24 12:51:04;;;;;;;1.55;0.90;;;13.30;99.90;;;;;;5016575;28;20033;-70
2022/06/24 12:53:32;;;;;;;2.35;0.82;;;13.40;99.90;;;;;;5016302;28;20018;-71
2022/06/24 12:56:01;;;;;;;1.17;0.43;;;13.40;99.90;;;;;;5016535;28;20037;-70
2022/06/24 12:58:28;;;;;;;1.45;0.50;;;13.40;99.90;;;;;;5016150;28;20486;-71
2022/06/24 13:00:57;;;;;;;2.05;0.60;;;13.30;99.90;;;;;;5016109;28;20026;-70
2022/06/24 13:03:25;;;;;;;1.67;0.70;;;13.20;99.90;;;;;;5014747;28;20100;-69
2022/06/24 13:05:52;;;;;;;1.60;0.80;;;13.20;99.90;;;;;;5015977;28;20391;-70
2022/06/24 13:08:20;;;;;;;3.10;0.98;;;13.20;99.90;;;;;;5015918;28;20080;-70
2022/06/24 13:10:48;;;;;;;1.23;0.47;;;13.20;99.90;;;;;;5015999;28;20025;-70
2022/06/24 13:13:15;;;;;;;1.00;0.60;;;13.20;99.90;;;;;;5014612;28;20026;-70
2022/06/24 13:15:43;;;;;;;1.05;0.50;;;13.10;99.90;;;;;;5014515;28;20054;-69